AGROMETEOROLOŠKI PORTAL
Vinorodna pokrajina

Temelj dobrega kmetovanja.

Pregled podatkov za lokacijo Krtina 1 DRSI, meteorološka postaja 191

Pregled senzorjev na lokaciji

ID Ime Zadnja
vrednost
Datum in čas
meritve
(lokalni čas)
Tip
senzorja
6215 Zračni tlak (hPa) 978 hPa 23.4.2024 23:00 DRSI
6212 Relativna zračna vlaga (2 m) (% RH) 100 % RH 23.4.2024 23:00 DRSI
6211 Temperatura (2 m) (°C) 4 °C 23.4.2024 23:00 DRSI
6214 Smer vetra (2 m) (°) 112 ° 23.4.2024 23:00 DRSI
6213 Hitrost vetra (2 m) (km/h) 1 km/h 23.4.2024 23:00 DRSI

Pregled podatkov zadnjih 24 ur

Zap.
št.
Datum in čas
(lokalni čas)
Krtina 1 DRSI
Zračni
tlak
Relativna
zračna
vlaga
(2
m)
Temperatura
(2
m)
Smer
vetra
(2
m)
Hitrost
vetra
(2
m)
1 23.4.2024 23:00 977,5 100 4 112 0,7
2 23.4.2024 22:30 976,9 100 4 112 2,3
3 23.4.2024 22:00 976,9 100 4 90 2,6
4 23.4.2024 21:30 977,2 100 4 0,4
5 23.4.2024 21:00 976,9 100 4 135 1,7
6 23.4.2024 20:30 976,9 100 4 135 2,6
7 23.4.2024 20:00 976,9 100 4 180 4
8 23.4.2024 19:30 976,9 100 4,3 180 2,6
9 23.4.2024 19:00 976,6 100 4,3 180 3
10 23.4.2024 18:30 976,6 100 4,7 180 5,6
11 23.4.2024 18:00 976,6 100 5 3
12 23.4.2024 17:30 976,6 100 5 180 3,6
13 23.4.2024 17:00 976,6 100 5 180 4
14 23.4.2024 16:30 976,9 100 5 180 4
15 23.4.2024 16:00 977,5 100 5 45 1,1
16 23.4.2024 15:30 977,5 100 5 45 1
17 23.4.2024 15:00 977,5 100 5 45 2,3
18 23.4.2024 14:30 978,5 100 4,7 112,5 1,7
19 23.4.2024 14:00 978,5 100 4 180 2,3
20 23.4.2024 13:30 978,5 100 5 4
21 23.4.2024 13:00 979,1 100 4 3
22 23.4.2024 12:30 979,4 100 4 180 5,3
23 23.4.2024 12:00 980,1 100 4 180 3,6
24 23.4.2024 11:30 980,4 100 4 180 2,3
25 23.4.2024 11:00 980,4 100 4 180 4,3
26 23.4.2024 10:30 980,4 100 4 180 3
27 23.4.2024 10:00 981,1 99,7 4 191 5,6
28 23.4.2024 09:30 981,4 98,3 4 3
29 23.4.2024 09:00 981,1 99 4 3,6
30 23.4.2024 08:30 981,4 99 4 4,3
31 23.4.2024 08:00 980,4 99,7 4 315 4
32 23.4.2024 07:30 981,1 100 4 315 10,3
33 23.4.2024 07:00 981,4 100 4 270 2
34 23.4.2024 06:30 981,4 100 4 270 0,7
35 23.4.2024 06:00 981,4 100 3,3 225 2,3
36 23.4.2024 05:30 981,4 100 3 225 1
37 23.4.2024 05:00 981,4 100 3 225 3,6
38 23.4.2024 04:30 982,3 100 3 194,6 3,6
39 23.4.2024 04:00 982,3 100 3 194,7 3,6
40 23.4.2024 03:30 982,3 100 3 191 1,7
41 23.4.2024 03:00 982,3 99,3 3,3 187,3 3,2
42 23.4.2024 02:30 982,3 98 4 180 2,3
43 23.4.2024 02:00 983 98 4 0
44 23.4.2024 01:30 983,3 97,3 4 236 3,6
45 23.4.2024 01:00 983,9 96,3 4 180 1,3